Time;durP1;ratioP1;P1;durP2;ratioP2;P2;SDS_P1;SDS_P2;PMS_P1;PMS_P2;Temp;Humidity;BMP_temperature;BMP_pressure;BME280_temperature;BME280_humidity;BME280_pressure;Samples;Min_cycle;Max_cycle;Signal;HPM_P1;HPM_P2
2021/03/22 00:00:25;;;;;;;26.17;6.10;;;;;;;;;;5032629;28;20214;-70
2021/03/22 00:03:10;;;;;;;28.23;7.45;;;;;;;;;;5034828;28;21178;-70
2021/03/22 00:05:54;;;;;;;25.10;6.87;;;;;;;;;;5037084;28;20567;-70
2021/03/22 00:08:39;;;;;;;25.97;7.13;;;;;;;;;;5054007;28;20206;-70
2021/03/22 00:11:24;;;;;;;24.30;6.83;;;;;;;;;;5049313;28;20244;-69
2021/03/22 00:14:08;;;;;;;18.43;6.40;;;;;;;;;;5034062;28;20237;-70
2021/03/22 00:16:53;;;;;;;22.57;6.80;;;;;;;;;;5035136;28;20684;-70
2021/03/22 00:19:37;;;;;;;28.37;6.77;;;;;;;;;;5052281;28;20303;-69
2021/03/22 00:22:22;;;;;;;21.63;6.90;;;;;;;;;;5052878;28;20206;-70
2021/03/22 00:25:08;;;;;;;32.30;7.00;;;;;;;;;;5039766;28;20210;-70
2021/03/22 00:27:52;;;;;;;30.17;6.93;;;;;;;;;;5033416;28;20202;-70
2021/03/22 00:30:38;;;;;;;25.07;7.40;;;;;;;;;;5033646;28;20268;-70
2021/03/22 00:33:23;;;;;;;27.10;6.97;;;;;;;;;;5033670;28;20604;-70
2021/03/22 00:36:07;;;;;;;26.63;6.87;;;;;;;;;;5033033;28;20733;-70
2021/03/22 00:38:52;;;;;;;29.07;6.93;;;;;;;;;;5046027;28;20205;-70
2021/03/22 00:41:37;;;;;;;19.50;6.33;;;;;;;;;;5048514;28;20206;-70
2021/03/22 00:44:22;;;;;;;24.03;7.23;;;;;;;;;;5033214;28;20225;-70
2021/03/22 00:47:06;;;;;;;28.48;8.23;;;;;;;;;;5036357;28;20515;-70
2021/03/22 00:49:51;;;;;;;25.33;6.60;;;;;;;;;;5034513;28;20234;-70
2021/03/22 00:52:35;;;;;;;25.97;7.27;;;;;;;;;;5052612;28;20256;-70
2021/03/22 00:55:20;;;;;;;25.63;7.00;;;;;;;;;;5053318;28;20216;-70
2021/03/22 00:58:05;;;;;;;31.77;7.90;;;;;;;;;;5051418;28;20205;-70
2021/03/22 01:00:50;;;;;;;31.73;8.85;;;;;;;;;;5053106;28;20908;-70
2021/03/22 01:03:36;;;;;;;21.00;7.33;;;;;;;;;;5033236;28;20253;-70
2021/03/22 01:06:20;;;;;;;26.57;7.27;;;;;;;;;;5033857;28;20202;-70
2021/03/22 01:09:05;;;;;;;27.90;7.53;;;;;;;;;;5032972;28;20248;-70
2021/03/22 01:11:50;;;;;;;33.33;8.20;;;;;;;;;;5042760;28;20197;-70
2021/03/22 01:14:35;;;;;;;25.93;7.00;;;;;;;;;;5052127;28;20275;-70
2021/03/22 01:17:19;;;;;;;23.33;7.23;;;;;;;;;;5040166;28;20224;-70
2021/03/22 01:20:06;;;;;;;27.80;7.60;;;;;;;;;;5050656;28;20221;-69
2021/03/22 01:22:51;;;;;;;24.83;7.37;;;;;;;;;;5051966;28;20281;-70
2021/03/22 01:25:35;;;;;;;26.13;6.90;;;;;;;;;;5052377;28;20208;-70
2021/03/22 01:28:20;;;;;;;26.10;7.63;;;;;;;;;;5035167;28;20202;-70
2021/03/22 01:31:05;;;;;;;32.95;9.23;;;;;;;;;;5032210;28;20461;-70
2021/03/22 01:33:51;;;;;;;26.80;7.90;;;;;;;;;;5032521;28;20631;-70
2021/03/22 01:36:35;;;;;;;27.00;7.77;;;;;;;;;;5036455;28;20212;-70
2021/03/22 01:39:21;;;;;;;25.77;7.87;;;;;;;;;;5052290;28;20301;-70
2021/03/22 01:42:16;;;;;;;30.37;7.63;;;;;;;;;;5051294;28;20545;-70
2021/03/22 01:45:01;;;;;;;27.92;9.10;;;;;;;;;;5051429;28;20443;-70
2021/03/22 01:47:46;;;;;;;25.73;8.57;;;;;;;;;;5047833;28;20204;-70
2021/03/22 01:50:32;;;;;;;29.40;8.33;;;;;;;;;;5034977;28;20234;-70
2021/03/22 01:53:17;;;;;;;22.57;8.10;;;;;;;;;;5032410;28;20225;-70
2021/03/22 01:56:08;;;;;;;32.87;8.77;;;;;;;;;;5035266;28;20240;-70
2021/03/22 01:58:53;;;;;;;32.37;9.53;;;;;;;;;;5052064;28;20609;-70
2021/03/22 02:01:37;;;;;;;32.17;8.63;;;;;;;;;;5051378;28;20278;-70
2021/03/22 02:04:23;;;;;;;29.83;8.33;;;;;;;;;;5047663;28;20722;-70
2021/03/22 02:07:08;;;;;;;24.23;8.63;;;;;;;;;;5045453;28;20555;-70
2021/03/22 02:09:52;;;;;;;27.43;8.40;;;;;;;;;;5051440;28;20217;-70
2021/03/22 02:12:37;;;;;;;28.87;9.70;;;;;;;;;;5032553;28;20210;-70
2021/03/22 02:15:21;;;;;;;31.52;11.43;;;;;;;;;;5048521;28;20827;-70
2021/03/22 02:18:10;;;;;;;27.10;9.57;;;;;;;;;;5050683;28;20641;-70
2021/03/22 02:21:21;;;;;;;32.00;9.50;;;;;;;;;;5051540;28;20933;-70
2021/03/22 02:24:25;;;;;;;31.07;8.90;;;;;;;;;;5050942;28;20217;-70
2021/03/22 02:27:28;;;;;;;27.00;9.13;;;;;;;;;;5050885;28;20252;-70
2021/03/22 02:30:25;;;;;;;30.17;12.15;;;;;;;;;;5040787;28;20421;-70
2021/03/22 02:33:25;;;;;;;31.63;10.07;;;;;;;;;;5031805;28;20302;-70
2021/03/22 02:36:11;;;;;;;30.97;9.63;;;;;;;;;;5041106;28;20209;-70
2021/03/22 02:38:57;;;;;;;37.53;10.13;;;;;;;;;;5051238;28;20251;-70
2021/03/22 02:41:44;;;;;;;31.87;9.20;;;;;;;;;;5033216;28;20629;-70
2021/03/22 02:44:30;;;;;;;26.77;9.60;;;;;;;;;;5035076;28;20240;-69
2021/03/22 02:47:21;;;;;;;32.37;9.13;;;;;;;;;;5031301;28;20303;-70
2021/03/22 02:50:07;;;;;;;30.83;9.50;;;;;;;;;;5040949;28;20275;-70
2021/03/22 02:53:05;;;;;;;27.03;9.57;;;;;;;;;;5051007;28;20660;-70
2021/03/22 02:55:53;;;;;;;27.80;10.07;;;;;;;;;;5050574;28;20900;-70
2021/03/22 02:58:42;;;;;;;26.47;9.90;;;;;;;;;;5050908;28;20229;-70
2021/03/22 03:01:28;;;;;;;33.78;13.35;;;;;;;;;;5049615;28;20404;-69
2021/03/22 03:04:14;;;;;;;34.83;11.30;;;;;;;;;;5050592;28;20723;-69
2021/03/22 03:07:00;;;;;;;29.30;10.77;;;;;;;;;;5030189;28;20639;-70
2021/03/22 03:09:45;;;;;;;29.47;11.53;;;;;;;;;;5030919;28;20221;-70
2021/03/22 03:12:29;;;;;;;33.23;10.90;;;;;;;;;;5041345;28;20687;-70
2021/03/22 03:15:14;;;;;;;34.13;14.15;;;;;;;;;;5049289;28;20973;-70
2021/03/22 03:17:59;;;;;;;29.00;10.53;;;;;;;;;;5050289;28;20260;-70
2021/03/22 03:20:43;;;;;;;28.63;11.57;;;;;;;;;;5050575;28;20237;-70
2021/03/22 03:23:29;;;;;;;32.07;11.70;;;;;;;;;;5030625;28;20218;-70
2021/03/22 03:26:14;;;;;;;31.47;10.77;;;;;;;;;;5030332;28;20202;-70
2021/03/22 03:28:58;;;;;;;42.47;11.63;;;;;;;;;;5030543;28;20218;-70
2021/03/22 03:31:43;;;;;;;30.53;11.27;;;;;;;;;;5030777;28;20202;-70
2021/03/22 03:34:28;;;;;;;42.20;12.07;;;;;;;;;;5033260;28;20252;-70
2021/03/22 03:37:12;;;;;;;32.70;11.70;;;;;;;;;;5034154;28;20201;-70
2021/03/22 03:39:57;;;;;;;33.10;10.97;;;;;;;;;;5034915;28;20276;-70
2021/03/22 03:42:42;;;;;;;29.63;11.27;;;;;;;;;;5034641;28;20286;-70
2021/03/22 03:45:28;;;;;;;37.85;13.90;;;;;;;;;;5034072;28;20557;-70
2021/03/22 03:48:13;;;;;;;34.53;12.57;;;;;;;;;;5034277;28;20206;-69
2021/03/22 03:50:59;;;;;;;34.77;12.53;;;;;;;;;;5034591;28;20755;-70
2021/03/22 03:53:43;;;;;;;29.50;11.80;;;;;;;;;;5054361;28;20201;-70
2021/03/22 03:56:28;;;;;;;36.20;12.40;;;;;;;;;;5053751;28;20659;-70
2021/03/22 03:59:13;;;;;;;36.85;13.90;;;;;;;;;;5053004;28;20422;-70
2021/03/22 04:01:57;;;;;;;33.70;12.00;;;;;;;;;;5054040;28;20252;-71
2021/03/22 04:04:42;;;;;;;34.77;12.20;;;;;;;;;;5047325;28;20230;-69
2021/03/22 04:07:26;;;;;;;36.30;12.57;;;;;;;;;;5033564;28;20668;-70
2021/03/22 04:10:11;;;;;;;38.50;12.17;;;;;;;;;;5034024;28;20709;-70
2021/03/22 04:12:56;;;;;;;45.73;12.90;;;;;;;;;;5040225;28;20618;-69
2021/03/22 04:15:41;;;;;;;39.87;12.37;;;;;;;;;;5053923;28;20282;-70
2021/03/22 04:18:26;;;;;;;37.03;11.80;;;;;;;;;;5053853;28;20681;-70
2021/03/22 04:21:12;;;;;;;35.93;13.10;;;;;;;;;;5054065;28;20293;-70
2021/03/22 04:23:57;;;;;;;38.33;12.60;;;;;;;;;;5053579;28;20236;-70
2021/03/22 04:26:42;;;;;;;39.90;11.93;;;;;;;;;;5053711;28;20240;-70
2021/03/22 04:29:26;;;;;;;37.40;12.50;;;;;;;;;;5053620;28;20648;-70
2021/03/22 04:32:12;;;;;;;38.53;15.05;;;;;;;;;;5052547;28;20777;-69
2021/03/22 04:34:56;;;;;;;37.53;13.23;;;;;;;;;;5060236;22;20260;-71
2021/03/22 04:37:41;;;;;;;33.60;12.27;;;;;;;;;;5037454;28;20272;-71
2021/03/22 04:40:29;;;;;;;38.40;13.10;;;;;;;;;;5053466;28;20228;-71
2021/03/22 04:43:14;;;;;;;32.27;12.33;;;;;;;;;;5053115;28;20205;-72
2021/03/22 04:45:58;;;;;;;40.58;16.00;;;;;;;;;;5051025;28;21084;-72
2021/03/22 04:48:43;;;;;;;36.07;13.50;;;;;;;;;;5042116;28;20656;-72
2021/03/22 04:51:28;;;;;;;32.93;12.27;;;;;;;;;;5033477;28;20329;-72
2021/03/22 04:54:12;;;;;;;41.67;12.83;;;;;;;;;;5048813;28;20300;-72
2021/03/22 04:57:09;;;;;;;37.00;11.93;;;;;;;;;;5045375;28;20209;-71
2021/03/22 04:59:54;;;;;;;42.30;11.33;;;;;;;;;;5033099;28;20262;-72
2021/03/22 05:02:39;;;;;;;36.70;11.97;;;;;;;;;;5033304;28;20210;-72
2021/03/22 05:05:25;;;;;;;35.53;12.70;;;;;;;;;;5032954;28;20233;-71
2021/03/22 05:08:10;;;;;;;35.10;12.07;;;;;;;;;;5032344;28;20260;-71
2021/03/22 05:10:56;;;;;;;35.27;12.27;;;;;;;;;;5052384;28;20229;-71
2021/03/22 05:13:40;;;;;;;43.77;13.13;;;;;;;;;;5053290;28;20605;-71
2021/03/22 05:16:25;;;;;;;36.63;12.30;;;;;;;;;;5052588;28;20203;-71
2021/03/22 05:19:09;;;;;;;33.53;12.93;;;;;;;;;;5052549;28;20306;-71
2021/03/22 05:21:55;;;;;;;33.67;12.73;;;;;;;;;;5052776;28;20324;-71
2021/03/22 05:24:40;;;;;;;40.30;13.20;;;;;;;;;;5052477;28;20317;-71
2021/03/22 05:27:24;;;;;;;41.07;13.77;;;;;;;;;;5052243;28;20225;-71
2021/03/22 05:30:10;;;;;;;37.65;13.20;;;;;;;;;;5051096;28;20401;-71
2021/03/22 05:32:55;;;;;;;32.23;12.13;;;;;;;;;;5041994;28;20241;-71
2021/03/22 05:35:41;;;;;;;34.83;12.20;;;;;;;;;;5040053;28;20217;-71
2021/03/22 05:38:27;;;;;;;33.23;12.47;;;;;;;;;;5033516;28;20672;-71
2021/03/22 05:41:15;;;;;;;39.97;13.53;;;;;;;;;;5032285;28;20321;-71
2021/03/22 05:44:04;;;;;;;33.30;12.57;;;;;;;;;;5032296;28;20239;-71
2021/03/22 05:46:50;;;;;;;41.27;13.00;;;;;;;;;;5031689;28;20229;-69
2021/03/22 05:49:42;;;;;;;38.37;12.53;;;;;;;;;;5032177;28;20226;-71
2021/03/22 05:52:33;;;;;;;29.23;10.97;;;;;;;;;;5032264;28;20210;-71
2021/03/22 05:55:36;;;;;;;35.00;10.73;;;;;;;;;;5031795;28;20215;-71
2021/03/22 05:58:48;;;;;;;41.23;12.20;;;;;;;;;;5030860;28;20205;-71
2021/03/22 06:01:39;;;;;;;28.27;11.83;;;;;;;;;;5031829;28;20214;-71
2021/03/22 06:04:25;;;;;;;32.77;12.40;;;;;;;;;;5031611;28;20253;-71
2021/03/22 06:07:13;;;;;;;32.43;11.63;;;;;;;;;;5031454;28;20241;-71
2021/03/22 06:09:59;;;;;;;40.53;12.17;;;;;;;;;;5032019;28;20225;-70
2021/03/22 06:12:48;;;;;;;31.50;11.17;;;;;;;;;;5030589;28;20214;-71
2021/03/22 06:15:35;;;;;;;37.77;11.30;;;;;;;;;;5031786;28;20338;-71
2021/03/22 06:18:28;;;;;;;38.10;14.20;;;;;;;;;;5148198;27;20440;-72
2021/03/22 06:21:14;;;;;;;38.10;10.57;;;;;;;;;;5149918;27;20202;-71
2021/03/22 06:23:58;;;;;;;36.43;10.87;;;;;;;;;;5149885;27;20203;-72
2021/03/22 06:26:43;;;;;;;31.93;11.00;;;;;;;;;;5149047;27;20198;-71
2021/03/22 06:29:29;;;;;;;26.67;8.77;;;;;;;;;;5145298;27;20268;-71
2021/03/22 06:32:20;;;;;;;30.87;9.97;;;;;;;;;;5128963;27;20283;-71
2021/03/22 06:35:08;;;;;;;30.07;10.40;;;;;;;;;;5144016;27;20260;-71
2021/03/22 06:37:53;;;;;;;35.03;10.27;;;;;;;;;;5148395;27;20245;-70
2021/03/22 06:40:38;;;;;;;26.67;9.47;;;;;;;;;;5149593;27;20669;-71
2021/03/22 06:43:23;;;;;;;31.10;9.57;;;;;;;;;;5148315;27;20195;-71
2021/03/22 06:46:09;;;;;;;27.17;9.40;;;;;;;;;;5148517;27;20210;-71
2021/03/22 06:48:56;;;;;;;27.53;9.20;;;;;;;;;;5143646;27;20254;-71
2021/03/22 06:51:41;;;;;;;31.40;9.80;;;;;;;;;;5145765;27;20287;-71
2021/03/22 06:54:35;;;;;;;29.27;10.63;;;;;;;;;;5149348;27;20200;-71
2021/03/22 06:57:20;;;;;;;29.13;9.87;;;;;;;;;;5148474;27;20230;-71
2021/03/22 07:00:08;;;;;;;30.83;11.27;;;;;;;;;;5149159;27;20223;-71
2021/03/22 07:02:53;;;;;;;43.97;17.10;;;;;;;;;;5148778;27;20579;-71
2021/03/22 07:05:39;;;;;;;38.03;13.87;;;;;;;;;;5149146;27;20242;-71
2021/03/22 07:08:39;;;;;;;27.47;11.83;;;;;;;;;;5148586;27;20579;-71
2021/03/22 07:11:24;;;;;;;27.77;9.73;;;;;;;;;;5148957;27;20207;-71
2021/03/22 07:14:11;;;;;;;22.07;9.00;;;;;;;;;;5146909;27;20211;-71
2021/03/22 07:17:06;;;;;;;25.67;8.47;;;;;;;;;;5147050;27;20285;-71
2021/03/22 07:20:05;;;;;;;21.20;8.03;;;;;;;;;;5147114;27;20227;-71
2021/03/22 07:22:50;;;;;;;24.70;8.27;;;;;;;;;;5147839;27;20203;-70
2021/03/22 07:25:38;;;;;;;23.40;8.03;;;;;;;;;;5146879;27;20242;-71
2021/03/22 07:28:26;;;;;;;24.43;7.50;;;;;;;;;;5121482;28;20301;-71
2021/03/22 07:31:14;;;;;;;21.97;7.53;;;;;;;;;;5113124;28;20200;-71
2021/03/22 07:34:07;;;;;;;17.07;6.10;;;;;;;;;;5113897;28;20460;-71
2021/03/22 07:36:54;;;;;;;16.50;6.33;;;;;;;;;;5113540;28;20250;-71
2021/03/22 07:39:43;;;;;;;16.83;6.50;;;;;;;;;;5114165;28;20216;-71
2021/03/22 07:42:34;;;;;;;18.80;6.53;;;;;;;;;;5114342;28;20205;-71
2021/03/22 07:45:28;;;;;;;18.37;6.20;;;;;;;;;;5114196;28;20205;-71
2021/03/22 07:48:30;;;;;;;15.48;5.97;;;;;;;;;;5113542;28;20395;-71
2021/03/22 07:51:31;;;;;;;15.80;5.70;;;;;;;;;;5113867;28;20238;-71
2021/03/22 07:54:21;;;;;;;13.43;5.00;;;;;;;;;;5113788;28;20268;-71
2021/03/22 07:57:10;;;;;;;11.93;4.77;;;;;;;;;;5112394;28;20684;-70
2021/03/22 08:00:01;;;;;;;14.60;5.30;;;;;;;;;;5113612;28;20788;-69
2021/03/22 08:03:10;;;;;;;16.70;5.90;;;;;;;;;;5113039;28;20576;-72
2021/03/22 08:06:12;;;;;;;13.83;4.97;;;;;;;;;;5110344;27;20552;-73
2021/03/22 08:09:03;;;;;;;11.97;4.90;;;;;;;;;;5120937;27;20266;-71
2021/03/22 08:11:51;;;;;;;10.47;5.00;;;;;;;;;;5124233;27;20205;-71
2021/03/22 08:14:37;;;;;;;13.97;5.87;;;;;;;;;;5113017;28;20252;-72
2021/03/22 08:17:33;;;;;;;17.40;6.88;;;;;;;;;;5115673;27;20807;-71
2021/03/22 08:20:20;;;;;;;11.90;5.77;;;;;;;;;;5133346;27;20734;-72
2021/03/22 08:23:09;;;;;;;7.83;4.13;;;;;;;;;;5124244;27;20203;-73
2021/03/22 08:25:56;;;;;;;10.83;4.97;;;;;;;;;;5117235;27;20685;-70
2021/03/22 08:28:41;;;;;;;10.67;4.23;;;;;;;;;;5118973;27;20229;-70
2021/03/22 08:31:28;;;;;;;12.95;8.30;;;;;;;;;;5128009;27;20399;-71
2021/03/22 08:34:19;;;;;;;8.57;4.40;;;;;;;;;;5131381;27;20574;-72
2021/03/22 08:37:07;;;;;;;8.33;4.20;;;;;;;;;;5126360;27;20217;-70
2021/03/22 08:39:54;;;;;;;15.27;4.23;;;;;;;;;;5121095;27;20251;-70
2021/03/22 08:42:40;;;;;;;8.50;3.87;;;;;;;;;;5112584;28;20214;-72
2021/03/22 08:45:26;;;;;;;9.00;4.00;;;;;;;;;;5112780;28;20712;-73
2021/03/22 08:48:13;;;;;;;12.17;4.23;;;;;;;;;;5113250;27;20363;-71
2021/03/22 08:50:59;;;;;;;8.93;4.03;;;;;;;;;;5112453;28;20672;-72
2021/03/22 08:53:44;;;;;;;7.07;4.10;;;;;;;;;;5116318;27;20255;-73
2021/03/22 08:56:32;;;;;;;9.20;4.27;;;;;;;;;;5111670;28;20206;-70
2021/03/22 08:59:19;;;;;;;5.33;3.60;;;;;;;;;;5113766;28;20226;-71
2021/03/22 09:02:16;;;;;;;6.53;3.63;;;;;;;;;;5126646;27;20850;-71
2021/03/22 09:05:15;;;;;;;6.30;2.97;;;;;;;;;;5132876;27;20202;-70
2021/03/22 09:08:18;;;;;;;3.97;2.40;;;;;;;;;;5132147;27;20646;-70
2021/03/22 09:11:14;;;;;;;4.20;2.30;;;;;;;;;;5112175;28;20272;-71
2021/03/22 09:13:59;;;;;;;3.17;2.13;;;;;;;;;;5111873;28;20229;-70
2021/03/22 09:16:45;;;;;;;2.53;2.10;;;;;;;;;;5114366;27;20232;-70
2021/03/22 09:19:50;;;;;;;3.20;1.90;;;;;;;;;;5130168;27;20576;-71
2021/03/22 09:22:43;;;;;;;5.17;2.00;;;;;;;;;;5130217;27;20285;-71
2021/03/22 09:26:00;;;;;;;1.77;1.60;;;;;;;;;;5112551;27;20286;-70
2021/03/22 09:28:50;;;;;;;2.97;1.60;;;;;;;;;;5111643;28;20225;-71
2021/03/22 09:31:37;;;;;;;4.50;2.13;;;;;;;;;;5111829;28;20356;-71
2021/03/22 09:34:32;;;;;;;5.53;2.57;;;;;;;;;;5117025;27;20683;-72
2021/03/22 09:37:36;;;;;;;5.47;2.87;;;;;;;;;;5131707;27;20217;-74
2021/03/22 09:40:39;;;;;;;4.00;2.10;;;;;;;;;;5129128;27;20310;-73
2021/03/22 09:43:29;;;;;;;3.03;2.30;;;;;;;;;;5112551;27;20221;-74
2021/03/22 09:46:25;;;;;;;3.43;1.40;;;;;;;;;;5111172;28;20210;-73
2021/03/22 09:49:11;;;;;;;2.27;1.50;;;;;;;;;;5111317;28;20234;-73
2021/03/22 09:52:14;;;;;;;3.27;1.13;;;;;;;;;;5111237;28;20252;-73
2021/03/22 09:54:59;;;;;;;1.50;1.10;;;;;;;;;;5111349;28;20221;-72
2021/03/22 09:57:44;;;;;;;2.30;1.40;;;;;;;;;;5112093;28;20313;-73
2021/03/22 10:00:48;;;;;;;3.27;1.50;;;;;;;;;;5124381;27;20418;-73
2021/03/22 10:03:50;;;;;;;2.73;1.27;;;;;;;;;;5131958;27;20200;-72
2021/03/22 10:06:50;;;;;;;3.07;1.30;;;;;;;;;;5128742;27;20201;-73
2021/03/22 10:09:40;;;;;;;4.60;2.50;;;;;;;;;;5131839;27;20260;-71
2021/03/22 10:12:29;;;;;;;3.23;1.70;;;;;;;;;;5131041;27;20194;-69
2021/03/22 10:15:26;;;;;;;1.57;1.47;;;;;;;;;;5122349;28;20709;-71
2021/03/22 10:18:18;;;;;;;1.77;1.10;;;;;;;;;;5110176;28;20270;-71
2021/03/22 10:21:11;;;;;;;2.20;1.73;;;;;;;;;;5111068;28;20284;-71
2021/03/22 10:23:57;;;;;;;1.53;1.20;;;;;;;;;;5111054;28;20195;-70
2021/03/22 10:26:42;;;;;;;2.63;1.20;;;;;;;;;;5112000;28;20272;-69
2021/03/22 10:29:28;;;;;;;1.23;1.13;;;;;;;;;;5110178;28;20266;-72
2021/03/22 10:32:15;;;;;;;2.20;1.30;;;;;;;;;;5110149;28;20673;-70
2021/03/22 10:35:05;;;;;;;1.33;1.20;;;;;;;;;;5116838;28;20199;-73
2021/03/22 10:37:50;;;;;;;2.30;1.00;;;;;;;;;;5128518;28;20295;-71
2021/03/22 10:40:37;;;;;;;1.33;1.23;;;;;;;;;;5129473;28;20203;-72
2021/03/22 10:43:23;;;;;;;1.20;1.10;;;;;;;;;;5129654;28;20194;-71
2021/03/22 10:46:16;;;;;;;1.40;0.90;;;;;;;;;;5131165;28;20202;-71
2021/03/22 10:49:05;;;;;;;2.63;1.43;;;;;;;;;;5120576;28;20364;-71
2021/03/22 10:51:52;;;;;;;2.63;1.83;;;;;;;;;;5125133;27;20719;-71
2021/03/22 10:54:41;;;;;;;2.23;2.00;;;;;;;;;;5128667;28;20207;-70
2021/03/22 10:57:27;;;;;;;2.00;1.30;;;;;;;;;;5130597;28;20218;-70
2021/03/22 11:00:23;;;;;;;5.43;2.00;;;;;;;;;;5110900;28;20606;-69
2021/03/22 11:03:08;;;;;;;2.20;1.57;;;;;;;;;;5113776;27;20206;-71
2021/03/22 11:05:54;;;;;;;3.07;1.70;;;;;;;;;;5134662;27;20230;-70
2021/03/22 11:08:39;;;;;;;2.17;1.50;;;;;;;;;;5125843;27;20597;-72
2021/03/22 11:11:24;;;;;;;2.63;1.90;;;;;;;;;;5114236;27;20214;-72
2021/03/22 11:14:13;;;;;;;2.33;1.70;;;;;;;;;;5122180;27;20551;-70
2021/03/22 11:17:00;;;;;;;2.90;1.70;;;;;;;;;;5133448;27;20234;-67
2021/03/22 11:19:45;;;;;;;3.00;1.80;;;;;;;;;;5124774;27;20254;-69
2021/03/22 11:22:32;;;;;;;1.97;1.50;;;;;;;;;;5114220;28;20257;-72
2021/03/22 11:25:34;;;;;;;3.10;1.70;;;;;;;;;;5113882;28;20622;-72
2021/03/22 11:28:26;;;;;;;2.30;1.90;;;;;;;;;;5117858;27;20550;-73
2021/03/22 11:31:17;;;;;;;1.77;1.67;;;;;;;;;;5134833;27;20198;-73
2021/03/22 11:34:03;;;;;;;2.90;1.40;;;;;;;;;;5134481;27;20621;-74
2021/03/22 11:36:48;;;;;;;2.83;1.70;;;;;;;;;;5131549;27;20631;-75
2021/03/22 11:39:33;;;;;;;1.70;1.60;;;;;;;;;;5130086;27;20264;-73
2021/03/22 11:42:19;;;;;;;1.60;1.50;;;;;;;;;;5134610;27;20218;-73
2021/03/22 11:45:18;;;;;;;2.40;1.63;;;;;;;;;;5131979;27;20203;-72
2021/03/22 11:48:06;;;;;;;2.30;1.30;;;;;;;;;;5131495;27;20227;-77
2021/03/22 11:50:59;;;;;;;1.73;1.60;;;;;;;;;;5134007;27;20234;-76
2021/03/22 11:53:57;;;;;;;2.27;1.53;;;;;;;;;;5118571;27;20195;-76
2021/03/22 11:56:53;;;;;;;2.67;1.50;;;;;;;;;;5124214;27;20195;-73
2021/03/22 11:59:46;;;;;;;1.73;1.60;;;;;;;;;;5115534;27;20570;-72
2021/03/22 12:02:32;;;;;;;1.67;1.57;;;;;;;;;;5124441;27;20349;-73
2021/03/22 12:05:25;;;;;;;2.17;1.40;;;;;;;;;;5113472;27;20257;-73
2021/03/22 12:08:29;;;;;;;2.10;1.63;;;;;;;;;;5111935;27;20717;-73
2021/03/22 12:11:15;;;;;;;2.10;1.50;;;;;;;;;;5114092;27;20272;-73
2021/03/22 12:14:00;;;;;;;2.87;1.37;;;;;;;;;;5119921;27;20740;-72
2021/03/22 12:16:45;;;;;;;1.40;1.30;;;;;;;;;;5125195;27;20239;-72
2021/03/22 12:19:36;;;;;;;2.10;1.50;;;;;;;;;;5131592;27;20260;-73
2021/03/22 12:22:23;;;;;;;2.03;1.50;;;;;;;;;;5112881;28;20200;-72
2021/03/22 12:25:10;;;;;;;2.07;1.43;;;;;;;;;;5113241;28;20211;-72
2021/03/22 12:27:55;;;;;;;1.30;1.20;;;;;;;;;;5113718;27;20284;-73
2021/03/22 12:30:39;;;;;;;1.23;1.10;;;;;;;;;;5113314;28;20206;-73
2021/03/22 12:33:25;;;;;;;1.50;1.23;;;;;;;;;;5119184;27;20256;-73
2021/03/22 12:36:10;;;;;;;2.93;1.70;;;;;;;;;;5123070;27;20276;-72
2021/03/22 12:38:55;;;;;;;2.70;1.80;;;;;;;;;;5112405;28;20323;-72
2021/03/22 12:41:39;;;;;;;1.70;1.50;;;;;;;;;;5112769;28;20218;-73
2021/03/22 12:44:24;;;;;;;2.13;1.57;;;;;;;;;;5116268;27;20257;-70
2021/03/22 12:47:10;;;;;;;1.80;1.63;;;;;;;;;;5124136;27;20776;-70
2021/03/22 12:49:55;;;;;;;2.67;1.50;;;;;;;;;;5112499;28;20219;-70
2021/03/22 12:52:39;;;;;;;1.87;1.60;;;;;;;;;;5112398;28;20198;-75
2021/03/22 12:55:26;;;;;;;1.87;1.30;;;;;;;;;;5112503;28;20677;-71
2021/03/22 12:58:13;;;;;;;1.50;1.40;;;;;;;;;;5116431;27;20732;-72
2021/03/22 13:00:58;;;;;;;2.85;1.73;;;;;;;;;;5130096;27;20777;-71
2021/03/22 13:03:42;;;;;;;2.30;1.40;;;;;;;;;;5130980;27;20199;-74
2021/03/22 13:06:27;;;;;;;3.40;2.40;;;;;;;;;;5112856;27;20203;-72
2021/03/22 13:09:11;;;;;;;1.40;1.30;;;;;;;;;;5111977;28;20222;-73
2021/03/22 13:11:56;;;;;;;2.13;1.60;;;;;;;;;;5112322;28;20203;-76
2021/03/22 13:14:41;;;;;;;2.60;1.77;;;;;;;;;;5124743;27;20681;-72
2021/03/22 13:17:27;;;;;;;1.80;1.70;;;;;;;;;;5111355;28;20231;-73
2021/03/22 13:20:15;;;;;;;2.93;1.97;;;;;;;;;;5111775;28;20249;-73
2021/03/22 13:22:59;;;;;;;2.40;1.63;;;;;;;;;;5111901;28;20285;-73
2021/03/22 13:25:44;;;;;;;2.80;1.90;;;;;;;;;;5117952;27;20622;-74
2021/03/22 13:28:30;;;;;;;1.70;1.60;;;;;;;;;;5111921;28;20231;-71
2021/03/22 13:31:15;;;;;;;2.80;1.80;;;;;;;;;;5119934;27;20213;-72
2021/03/22 13:34:00;;;;;;;2.20;1.67;;;;;;;;;;5114418;27;20211;-71
2021/03/22 13:36:44;;;;;;;3.57;1.80;;;;;;;;;;5111232;28;20218;-70
2021/03/22 13:39:29;;;;;;;1.97;1.40;;;;;;;;;;5114083;27;20557;-71
2021/03/22 13:42:13;;;;;;;1.93;1.50;;;;;;;;;;5111674;28;20575;-69
2021/03/22 13:44:58;;;;;;;1.73;1.33;;;;;;;;;;5125834;27;20199;-69
2021/03/22 13:47:43;;;;;;;1.95;1.50;;;;;;;;;;5118689;27;20414;-72
2021/03/22 13:50:27;;;;;;;1.93;1.40;;;;;;;;;;5131865;27;20260;-71
2021/03/22 13:53:12;;;;;;;2.30;1.40;;;;;;;;;;5115306;27;20273;-69
2021/03/22 13:55:57;;;;;;;2.23;1.33;;;;;;;;;;5124504;27;20252;-71
2021/03/22 13:58:41;;;;;;;1.60;1.10;;;;;;;;;;5129043;27;20357;-71
2021/03/22 14:01:27;;;;;;;2.20;1.60;;;;;;;;;;5111211;28;20199;-70
2021/03/22 14:04:11;;;;;;;1.63;1.23;;;;;;;;;;5111369;28;20238;-69
2021/03/22 14:06:56;;;;;;;2.50;1.40;;;;;;;;;;5110206;28;20205;-73
2021/03/22 14:09:41;;;;;;;2.90;1.30;;;;;;;;;;5111265;28;20208;-70
2021/03/22 14:12:25;;;;;;;2.03;1.40;;;;;;;;;;5111291;28;20199;-70
2021/03/22 14:15:14;;;;;;;2.47;1.20;;;;;;;;;;5111388;28;20214;-71
2021/03/22 14:18:00;;;;;;;2.53;1.50;;;;;;;;;;5109400;28;20503;-71
2021/03/22 14:20:45;;;;;;;2.00;1.40;;;;;;;;;;5125777;28;20323;-71
2021/03/22 14:23:30;;;;;;;1.97;1.50;;;;;;;;;;5131617;28;20676;-72
2021/03/22 14:26:16;;;;;;;2.87;1.67;;;;;;;;;;5130958;28;20255;-70
2021/03/22 14:29:00;;;;;;;2.57;1.60;;;;;;;;;;5126958;28;20227;-72
2021/03/22 14:31:44;;;;;;;2.35;1.48;;;;;;;;;;5110084;28;20444;-72
2021/03/22 14:34:30;;;;;;;1.60;1.50;;;;;;;;;;5110790;28;20204;-72
2021/03/22 14:37:14;;;;;;;1.50;1.40;;;;;;;;;;5110212;28;20284;-73
2021/03/22 14:39:59;;;;;;;1.00;1.00;;;;;;;;;;5114587;28;20237;-72
2021/03/22 14:42:43;;;;;;;1.20;1.10;;;;;;;;;;5114751;28;20246;-72
2021/03/22 14:45:29;;;;;;;2.00;1.47;;;;;;;;;;5116634;27;20295;-72
2021/03/22 14:48:14;;;;;;;4.20;2.73;;;;;;;;;;5127673;27;20238;-72
2021/03/22 14:50:59;;;;;;;1.00;1.00;;;;;;;;;;5135651;27;20254;-72
2021/03/22 14:53:44;;;;;;;1.50;1.40;;;;;;;;;;5132321;27;20203;-71
2021/03/22 14:56:29;;;;;;;2.40;1.40;;;;;;;;;;5123356;27;20278;-70
2021/03/22 14:59:14;;;;;;;3.67;1.50;;;;;;;;;;5126687;27;20255;-71
2021/03/22 15:01:58;;;;;;;2.60;1.63;;;;;;;;;;5134620;27;20418;-70
2021/03/22 15:04:43;;;;;;;1.40;1.30;;;;;;;;;;5129879;27;20199;-70
2021/03/22 15:07:28;;;;;;;1.60;1.40;;;;;;;;;;5118412;27;20280;-70
2021/03/22 15:10:13;;;;;;;1.80;1.30;;;;;;;;;;5114469;28;20211;-69
2021/03/22 15:12:58;;;;;;;2.13;1.40;;;;;;;;;;5135022;27;20199;-70
2021/03/22 15:15:42;;;;;;;3.75;1.30;;;;;;;;;;5134406;27;20798;-70
2021/03/22 15:18:27;;;;;;;1.50;1.40;;;;;;;;;;5134698;27;20276;-70
2021/03/22 15:21:12;;;;;;;2.60;1.50;;;;;;;;;;5134818;27;20723;-70
2021/03/22 15:23:58;;;;;;;4.50;1.50;;;;;;;;;;5134818;27;20226;-70
2021/03/22 15:26:42;;;;;;;2.00;1.60;;;;;;;;;;5134108;27;20191;-71
2021/03/22 15:29:27;;;;;;;1.80;1.70;;;;;;;;;;5119308;27;20261;-72
2021/03/22 15:32:11;;;;;;;2.03;1.60;;;;;;;;;;5114102;28;20238;-73
2021/03/22 15:34:56;;;;;;;3.80;3.50;;;;;;;;;;5123756;27;20722;-71
2021/03/22 15:37:40;;;;;;;2.30;1.70;;;;;;;;;;5120423;27;20693;-72
2021/03/22 15:40:26;;;;;;;1.73;1.30;;;;;;;;;;5134273;27;20220;-72
2021/03/22 15:43:10;;;;;;;1.67;1.57;;;;;;;;;;5119728;27;20315;-71
2021/03/22 15:45:56;;;;;;;2.10;1.77;;;;;;;;;;5113076;28;20346;-73
2021/03/22 15:48:41;;;;;;;2.43;1.50;;;;;;;;;;5113550;28;20269;-72
2021/03/22 15:51:25;;;;;;;2.67;1.50;;;;;;;;;;5113356;28;20257;-72
2021/03/22 15:54:10;;;;;;;1.83;1.43;;;;;;;;;;5118238;27;20208;-71
2021/03/22 15:56:55;;;;;;;1.33;1.23;;;;;;;;;;5133485;27;20252;-73
2021/03/22 15:59:40;;;;;;;3.10;1.60;;;;;;;;;;5133860;27;20288;-72
2021/03/22 16:02:24;;;;;;;2.15;1.67;;;;;;;;;;5127076;27;20391;-73
2021/03/22 16:05:09;;;;;;;2.53;1.80;;;;;;;;;;5113591;28;20253;-72
2021/03/22 16:07:54;;;;;;;1.80;1.50;;;;;;;;;;5112837;28;20254;-72
2021/03/22 16:10:39;;;;;;;2.90;1.60;;;;;;;;;;5113409;28;20199;-72
2021/03/22 16:13:25;;;;;;;4.07;1.40;;;;;;;;;;5113514;28;20666;-72
2021/03/22 16:16:10;;;;;;;2.43;1.77;;;;;;;;;;5112704;28;20569;-72
2021/03/22 16:18:54;;;;;;;2.50;1.87;;;;;;;;;;5113057;28;20257;-72
2021/03/22 16:21:39;;;;;;;3.40;1.70;;;;;;;;;;5113076;28;20294;-71
2021/03/22 16:24:23;;;;;;;2.87;1.70;;;;;;;;;;5125185;27;20314;-73
2021/03/22 16:27:08;;;;;;;2.90;1.90;;;;;;;;;;5130879;27;20226;-73
2021/03/22 16:29:54;;;;;;;4.80;3.23;;;;;;;;;;5119041;27;20682;-72
2021/03/22 16:32:38;;;;;;;2.97;2.07;;;;;;;;;;5116627;27;20207;-72